This is the latest recevied weather packets stored in our database for station/object SP4MAZ-13. If no packets are shown the sender has not sent any weather packets the latest 1 day(s).
| Time | Temp. | Humidity | Pressure | Rain* | Wind** | Luminosity | Snow |
|---|---|---|---|---|---|---|---|
| 1777987122 | 17.78° C | 74% | 2147.4 hPa | - | 0.45 m/s, 120° | - | - |
| 1777986818 | 17.22° C | 74% | 2147.4 hPa | - | 0.45 m/s, 120° | - | - |
| 1777986515 | 16.67° C | 85% | 2147.4 hPa | - | 0.45 m/s, 120° | - | - |
| 1777986211 | 16.67° C | 85% | 2147.4 hPa | - | 0.45 m/s, 120° | - | - |
| 1777985910 | 16.67° C | 87% | 2147.4 hPa | - | 0.45 m/s, 120° | - | - |
| 1777985609 | 16.11° C | 86% | 2147.4 hPa | - | 0.45 m/s, 120° | - | - |
| 1777985305 | 17.22° C | 80% | 2147.4 hPa | - | 0.45 m/s, 120° | - | - |
| 1777985002 | 17.22° C | 77% | 2147.4 hPa | - | 0.45 m/s, 120° | - | - |
| 1777984699 | 17.78° C | 77% | 2147.4 hPa | - | 0.45 m/s, 120° | - | - |
| 1777984395 | 17.78° C | 72% | 2147.4 hPa | - | 0.45 m/s, 120° | - | - |
| 1777984094 | 18.89° C | 68% | 2147.4 hPa | - | 0.45 m/s, 120° | - | - |
| 1777983793 | 18.33° C | 72% | 2147.4 hPa | - | 0.45 m/s, 120° | - | - |
| 1777983490 | 18.33° C | 70% | 2147.4 hPa | - | 0.45 m/s, 120° | - | - |
| 1777983187 | 17.78° C | 73% | 2147.4 hPa | - | 0.45 m/s, 120° | - | - |
| 1777982883 | 17.22° C | 79% | 2147.4 hPa | - | 0.45 m/s, 120° | - | - |
| 1777982580 | 16.67° C | 84% | 2147.4 hPa | - | 0.45 m/s, 120° | - | - |
| 1777982276 | 16.67° C | 81% | 2147.4 hPa | - | 0.45 m/s, 120° | - | - |
| 1777981973 | 17.78° C | 74% | 2147.4 hPa | - | 0.45 m/s, 120° | - | - |
| 1777981669 | 16.67° C | 82% | 2147.4 hPa | - | 0.45 m/s, 120° | - | - |
| 1777981366 | 15.56° C | 86% | 2147.4 hPa | - | 0.45 m/s, 120° | - | - |
| 1777981064 | 16.11° C | 82% | 2147.4 hPa | - | 0.45 m/s, 120° | - | - |
| 1777980761 | 16.67° C | 76% | 2147.4 hPa | - | 0.45 m/s, 120° | - | - |
| 1777980458 | 17.22° C | 72% | 2147.4 hPa | - | 0.45 m/s, 120° | - | - |
| 1777980156 | 17.22° C | 71% | 2147.4 hPa | - | 0.45 m/s, 120° | - | - |
| 1777979853 | 17.78° C | 68% | 2147.4 hPa | - | 0.45 m/s, 120° | - | - |
* Rain since midnight (hover to see other rain measurements)
** Current wind speed in m/s (hover to see current wind gust speed)